Terminal Aerodrome Forecast
Issued by NWS Wilmington, NC

Home | Current Version | Previous Version | Text Only | Print | Product List | Glossary On
Versions: 1 2 3 4 5 6 7 8 9 10 11 12 13
000
FTUS42 KILM 231100
TAFLBT
TAF
KLBT 231122Z 2312/2412 04009KT P6SM SCT050 OVC100
     FM231600 05011KT P6SM -RA BKN050 OVC090
     FM232200 03012KT P6SM SCT040 BKN100=

USA.gov is the U.S. government's official web portal to all federal, state and local government web resources and services.